Time;durP1;ratioP1;P1;durP2;ratioP2;P2;SDS_P1;SDS_P2;PMS_P1;PMS_P2;Temp;Humidity;BMP_temperature;BMP_pressure;BME280_temperature;BME280_humidity;BME280_pressure;Samples;Min_cycle;Max_cycle;Signal;HPM_P1;HPM_P2
2023/09/22 20:12:12;;;;;;;15.05;8.90;;;;;;;22.03;68.63;99410.42;1866818;76;25527;-56
2023/09/22 20:14:38;;;;;;;15.50;8.65;;;;;;;21.98;68.51;99414.39;1824359;78;25522;-54
2023/09/22 20:17:06;;;;;;;14.13;8.70;;;;;;;21.92;68.88;99405.80;1824783;78;27540;-56
2023/09/22 20:22:12;;;;;;;20.32;9.30;;;;;;;21.88;68.57;99414.70;1791011;76;25587;-55
2023/09/22 20:24:43;;;;;;;17.00;9.10;;;;;;;21.85;68.73;99409.23;1797313;79;25412;-56
2023/09/22 20:27:13;;;;;;;14.35;8.45;;;;;;;21.82;68.66;99414.94;1797306;79;32180;-56
2023/09/22 20:29:43;;;;;;;15.13;8.90;;;;;;;21.79;68.69;99416.55;1797401;79;27659;-55
2023/09/22 20:32:13;;;;;;;17.05;8.55;;;;;;;21.79;68.97;99413.00;1854487;77;26271;-58
2023/09/22 20:34:41;;;;;;;17.15;8.38;;;;;;;21.76;69.04;99414.61;1854984;76;25558;-59
2023/09/22 20:37:10;;;;;;;15.08;9.75;;;;;;;21.72;68.75;99414.44;1854845;77;25411;-61
2023/09/22 20:39:39;;;;;;;13.75;9.25;;;;;;;21.69;68.94;99414.67;1854957;77;25615;-61
2023/09/22 20:42:08;;;;;;;20.08;8.73;;;;;;;21.65;69.33;99418.03;1854837;77;28187;-60
2023/09/22 20:44:38;;;;;;;15.00;9.60;;;;;;;21.61;69.06;99428.30;1854593;77;25580;-58
2023/09/22 20:47:08;;;;;;;15.78;9.63;;;;;;;21.59;69.36;99425.14;1854834;77;25223;-61
2023/09/22 20:49:37;;;;;;;15.90;9.08;;;;;;;21.55;69.60;99421.65;1854564;77;25386;-60
2023/09/22 20:52:05;;;;;;;19.02;10.45;;;;;;;21.52;69.65;99424.63;1854577;77;25556;-60
2023/09/22 20:54:33;;;;;;;13.55;9.85;;;;;;;21.49;69.81;99424.06;1830615;77;27303;-60
2023/09/22 20:57:01;;;;;;;16.52;9.60;;;;;;;21.46;69.94;99422.08;1854654;77;25886;-59
2023/09/22 20:59:29;;;;;;;18.15;9.68;;;;;;;21.42;70.05;99430.36;1854612;77;25621;-57
2023/09/22 21:01:57;;;;;;;19.55;9.13;;;;;;;21.39;69.88;99426.26;1854423;76;25809;-60
2023/09/22 21:04:24;;;;;;;13.15;9.95;;;;;;;21.36;70.54;99422.33;1854081;77;25297;-58
2023/09/22 21:06:51;;;;;;;13.93;9.93;;;;;;;21.34;70.37;99417.06;1853762;77;28021;-60
2023/09/22 21:09:20;;;;;;;19.17;10.10;;;;;;;21.31;70.32;99423.36;1853663;77;25644;-63
2023/09/22 21:11:47;;;;;;;16.85;9.50;;;;;;;21.29;70.56;99422.98;1853726;77;25886;-64
2023/09/22 21:14:18;;;;;;;15.38;9.35;;;;;;;21.25;70.97;99424.39;1853695;77;25740;-64
2023/09/22 21:16:46;;;;;;;39.65;31.02;;;;;;;21.24;70.60;99423.59;1853828;77;25571;-56
2023/09/22 21:19:12;;;;;;;19.87;13.30;;;;;;;21.24;71.10;99429.69;1830024;77;26990;-56
2023/09/22 21:21:38;;;;;;;21.48;10.35;;;;;;;21.20;71.04;99429.72;1852936;77;25639;-56
2023/09/22 21:24:07;;;;;;;33.23;23.95;;;;;;;21.19;70.83;99423.23;1839628;77;25595;-53
2023/09/22 21:26:35;;;;;;;26.35;14.55;;;;;;;21.18;71.44;99428.53;1803875;79;25567;-56
2023/09/22 21:29:06;;;;;;;16.12;9.95;;;;;;;21.16;71.11;99428.94;1838427;78;25145;-60
2023/09/22 21:31:39;;;;;;;17.10;10.08;;;;;;;21.16;71.34;99421.29;1838372;78;27592;-59
2023/09/22 21:34:06;;;;;;;18.42;10.20;;;;;;;21.14;71.42;99420.91;1838377;77;25714;-61
2023/09/22 21:36:33;;;;;;;15.55;10.82;;;;;;;21.13;71.42;99417.39;1838392;78;25446;-59
2023/09/22 21:39:00;;;;;;;18.23;11.25;;;;;;;21.14;71.38;99414.04;1838361;78;25372;-59
2023/09/22 21:41:27;;;;;;;17.95;11.22;;;;;;;21.15;71.55;99412.87;1838404;78;25357;-60
2023/09/22 21:43:53;;;;;;;20.57;10.63;;;;;;;21.13;71.40;99409.14;1838412;78;27689;-59
2023/09/22 21:46:19;;;;;;;14.80;9.78;;;;;;;21.13;71.53;99412.47;1838278;78;25823;-62
2023/09/22 21:48:46;;;;;;;20.37;11.30;;;;;;;21.10;71.54;99409.94;1838375;78;25534;-59
2023/09/22 21:51:13;;;;;;;13.88;9.90;;;;;;;21.11;71.70;99409.34;1838286;78;25595;-61
2023/09/22 21:53:42;;;;;;;16.42;10.93;;;;;;;21.09;71.55;99413.86;1838367;78;25375;-60
2023/09/22 21:56:09;;;;;;;18.65;10.25;;;;;;;21.11;71.79;99409.34;1837334;78;28122;-59
2023/09/22 21:58:35;;;;;;;14.60;10.03;;;;;;;21.10;71.66;99416.04;1837208;78;26078;-59
2023/09/22 22:01:02;;;;;;;15.60;11.22;;;;;;;21.09;71.81;99417.98;1833350;78;25577;-60
2023/09/22 22:03:29;;;;;;;17.87;11.03;;;;;;;21.06;72.06;99413.28;1838318;78;25534;-59
2023/09/22 22:05:56;;;;;;;16.90;10.50;;;;;;;21.07;72.08;99414.26;1838437;78;25563;-61
2023/09/22 22:08:26;;;;;;;13.53;10.18;;;;;;;21.07;72.08;99423.88;1838498;78;28077;-60
2023/09/22 22:10:53;;;;;;;14.20;10.18;;;;;;;21.06;72.22;99415.46;1838182;77;25691;-60
2023/09/22 22:13:21;;;;;;;18.35;10.88;;;;;;;21.07;72.31;99424.48;1838396;78;25612;-60
2023/09/22 22:15:49;;;;;;;14.13;10.08;;;;;;;21.07;72.30;99427.23;1808207;78;25500;-60
2023/09/22 22:18:16;;;;;;;18.17;9.73;;;;;;;21.05;72.35;99415.26;1838473;78;25387;-59
2023/09/22 22:20:44;;;;;;;16.10;10.80;;;;;;;21.06;72.37;99429.78;1838389;78;27489;-60
2023/09/22 22:23:13;;;;;;;16.62;10.28;;;;;;;21.05;72.37;99420.76;1838153;78;25719;-58
2023/09/22 22:25:41;;;;;;;21.02;10.45;;;;;;;21.06;72.38;99420.16;1838519;78;25618;-58
2023/09/22 22:28:08;;;;;;;17.48;10.20;;;;;;;21.05;72.73;99412.52;1838326;78;25373;-59
2023/09/22 22:30:37;;;;;;;16.32;10.82;;;;;;;21.03;72.61;99411.36;1838378;78;25623;-58
2023/09/22 22:33:08;;;;;;;19.10;10.53;;;;;;;21.03;72.67;99409.98;1838329;78;27632;-59
2023/09/22 22:35:40;;;;;;;16.15;9.60;;;;;;;21.04;72.77;99415.09;1838243;78;25520;-55
2023/09/22 22:38:08;;;;;;;37.45;25.95;;;;;;;21.03;72.79;99420.98;1838380;78;25396;-57
2023/09/22 22:40:40;;;;;;;17.95;10.78;;;;;;;21.02;72.96;99403.69;1838553;78;25821;-58
2023/09/22 22:43:05;;;;;;;20.02;12.25;;;;;;;21.03;72.93;99411.36;1837645;78;25431;-59
2023/09/22 22:45:32;;;;;;;16.02;12.23;;;;;;;21.00;73.07;99408.81;1838352;78;28091;-55
2023/09/22 22:48:06;;;;;;;18.73;11.78;;;;;;;20.97;73.13;99408.23;1838299;78;25611;-58
2023/09/22 22:50:32;;;;;;;22.13;11.05;;;;;;;20.95;73.21;99402.95;1838293;78;25577;-53
2023/09/22 22:52:58;;;;;;;17.85;10.90;;;;;;;20.92;73.79;99424.37;1807925;78;25389;-53
2023/09/22 22:55:28;;;;;;;18.65;10.72;;;;;;;20.88;73.79;99414.17;1838328;78;25540;-54
2023/09/22 22:57:56;;;;;;;15.63;10.60;;;;;;;20.86;73.69;99412.42;1838529;78;28216;-51
2023/09/22 23:00:22;;;;;;;15.13;10.53;;;;;;;20.86;73.94;99415.16;1838418;78;25384;-55
2023/09/22 23:02:50;;;;;;;18.62;10.88;;;;;;;20.84;73.73;99421.66;1838353;78;25400;-52
2023/09/22 23:05:17;;;;;;;20.12;11.95;;;;;;;20.84;73.68;99429.10;1838252;78;25592;-54
2023/09/22 23:07:46;;;;;;;23.85;11.60;;;;;;;20.83;73.72;99440.69;1838224;78;25460;-53
2023/09/22 23:10:14;;;;;;;18.57;10.93;;;;;;;20.81;73.97;99434.82;1836900;78;28474;-53
2023/09/22 23:12:44;;;;;;;17.67;10.98;;;;;;;20.78;74.07;99434.84;1837253;78;29674;-52
2023/09/22 23:15:12;;;;;;;16.93;10.88;;;;;;;20.75;74.18;99438.38;1838366;78;25620;-56
2023/09/22 23:17:43;;;;;;;20.55;11.22;;;;;;;20.70;74.99;99446.44;1838559;78;25798;-56
2023/09/22 23:20:13;;;;;;;18.90;10.72;;;;;;;20.67;74.72;99445.84;1838449;78;25454;-55
2023/09/22 23:22:41;;;;;;;21.17;10.90;;;;;;;20.63;74.84;99446.47;1838414;77;27584;-55
2023/09/22 23:25:08;;;;;;;17.23;10.13;;;;;;;20.59;75.12;99446.45;1835813;78;25501;-56
2023/09/22 23:27:40;;;;;;;15.68;11.05;;;;;;;20.55;75.48;99466.30;1810283;78;25469;-56
2023/09/22 23:30:09;;;;;;;21.90;11.80;;;;;;;20.50;75.78;99472.97;1836009;78;25578;-56
2023/09/22 23:32:36;;;;;;;17.92;10.00;;;;;;;20.48;76.03;99473.95;1836153;78;25566;-56
2023/09/22 23:35:10;;;;;;;20.55;11.97;;;;;;;20.44;75.99;99458.66;1835916;78;29589;-54
2023/09/22 23:37:37;;;;;;;17.17;12.25;;;;;;;20.41;76.24;99462.97;1835308;78;25802;-54
2023/09/22 23:40:07;;;;;;;18.50;12.33;;;;;;;20.40;76.23;99461.41;1810018;78;25478;-56
2023/09/22 23:42:39;;;;;;;18.75;11.53;;;;;;;20.40;76.38;99451.80;1832230;78;25724;-56
2023/09/22 23:45:11;;;;;;;23.18;12.90;;;;;;;20.39;76.60;99461.81;1835422;78;32723;-53
2023/09/22 23:47:40;;;;;;;21.73;13.75;;;;;;;20.37;76.91;99469.06;1835975;78;28051;-55
2023/09/22 23:50:07;;;;;;;18.60;12.73;;;;;;;20.32;78.11;99480.45;1836049;78;27410;-56
2023/09/22 23:52:35;;;;;;;23.75;13.72;;;;;;;20.23;78.39;99486.36;1835913;78;25129;-54
2023/09/22 23:55:03;;;;;;;21.62;12.73;;;;;;;20.13;78.88;99453.61;1810045;78;25555;-57
2023/09/22 23:57:31;;;;;;;19.55;13.53;;;;;;;20.05;79.27;99453.41;1827859;78;25555;-56
2023/09/22 23:59:58;;;;;;;19.62;12.98;;;;;;;19.97;80.10;99451.84;1836046;78;29663;-54
